createdAt,value
2019-02-10T00:01:10.085Z,0.00
2019-02-10T00:02:10.317Z,0.00
2019-02-10T00:04:14.468Z,0.00
2019-02-10T00:05:14.702Z,0.00
2019-02-10T00:07:07.801Z,0.00
2019-02-10T00:08:08.036Z,0.00
2019-02-10T00:10:12.204Z,0.00
2019-02-10T00:11:12.438Z,0.00
2019-02-10T00:13:16.588Z,0.00
2019-02-10T00:14:16.821Z,0.00
2019-02-10T00:16:21.004Z,0.00
2019-02-10T00:17:21.240Z,0.00
2019-02-10T00:19:25.383Z,0.00
2019-02-10T00:20:25.618Z,0.00
2019-02-10T00:22:29.787Z,0.00
2019-02-10T00:23:30.021Z,0.00
2019-02-10T00:25:34.189Z,0.00
2019-02-10T00:26:34.420Z,0.00
2019-02-10T00:28:38.589Z,0.00
2019-02-10T00:29:38.823Z,0.00
2019-02-10T00:31:43.001Z,0.00
2019-02-10T00:32:43.230Z,0.00
2019-02-10T00:34:47.379Z,0.00
2019-02-10T00:35:47.613Z,0.00
2019-02-10T00:37:51.782Z,0.00
2019-02-10T00:38:52.021Z,0.00
2019-02-10T00:40:56.191Z,0.00
2019-02-10T00:41:56.422Z,0.00
2019-02-10T00:44:00.572Z,0.00
2019-02-10T00:45:00.806Z,0.00
2019-02-10T00:46:53.903Z,0.00
2019-02-10T00:47:54.137Z,0.00
2019-02-10T00:49:58.282Z,0.00
2019-02-10T00:50:58.514Z,0.00
2019-02-10T00:53:02.685Z,0.00
2019-02-10T00:54:02.933Z,0.00
2019-02-10T00:56:07.061Z,0.00
2019-02-10T00:57:07.295Z,0.00
2019-02-10T00:59:11.465Z,0.00
2019-02-10T01:00:11.699Z,0.00
2019-02-10T01:02:15.881Z,0.00
2019-02-10T01:03:16.102Z,0.00
2019-02-10T01:05:20.250Z,0.00
2019-02-10T01:06:20.484Z,0.00
2019-02-10T01:08:24.650Z,0.00
2019-02-10T01:09:24.885Z,0.00
2019-02-10T01:11:29.030Z,0.00
2019-02-10T01:12:29.263Z,0.00
2019-02-10T01:14:33.431Z,0.00
2019-02-10T01:15:33.665Z,0.00
2019-02-10T01:17:26.766Z,0.00
2019-02-10T01:18:27.002Z,0.00
2019-02-10T01:20:31.148Z,0.00
2019-02-10T01:21:31.384Z,0.00
2019-02-10T01:23:35.555Z,0.00
2019-02-10T01:24:35.787Z,0.00
2019-02-10T01:26:39.937Z,0.00
2019-02-10T01:27:40.172Z,0.00
2019-02-10T01:29:44.339Z,0.00
2019-02-10T01:30:44.572Z,0.00
2019-02-10T01:32:48.748Z,0.00
2019-02-10T01:33:48.981Z,0.00
2019-02-10T01:35:53.131Z,0.00
2019-02-10T01:36:53.365Z,0.00
2019-02-10T01:38:57.536Z,0.00
2019-02-10T01:39:57.769Z,0.00
2019-02-10T01:42:01.915Z,0.00
2019-02-10T01:43:02.148Z,0.00
2019-02-10T01:45:06.321Z,0.00
2019-02-10T01:46:06.553Z,0.00
2019-02-10T01:48:10.720Z,0.00
2019-02-10T01:49:10.958Z,0.00
2019-02-10T01:51:15.107Z,0.00
2019-02-10T01:52:15.339Z,0.00
2019-02-10T01:54:19.510Z,0.00
2019-02-10T01:55:19.739Z,0.00
2019-02-10T01:57:12.835Z,0.00
2019-02-10T01:58:13.054Z,0.00
2019-02-10T02:00:17.219Z,0.19
2019-02-10T02:01:17.453Z,0.85
2019-02-10T02:03:21.623Z,0.66
2019-02-10T02:04:21.856Z,0.85
2019-02-10T02:06:26.006Z,0.47
2019-02-10T02:07:26.242Z,0.09
2019-02-10T02:09:30.417Z,0.00
2019-02-10T02:10:30.648Z,0.00
2019-02-10T02:12:34.798Z,0.00
2019-02-10T02:13:36.445Z,0.00
2019-02-10T02:15:39.202Z,0.66
2019-02-10T02:16:39.433Z,1.42
2019-02-10T02:18:43.605Z,3.98
2019-02-10T02:19:43.839Z,5.79
2019-02-10T02:21:47.988Z,8.35
2019-02-10T02:22:48.223Z,9.01
2019-02-10T02:24:52.404Z,9.11
2019-02-10T02:25:52.637Z,8.83
2019-02-10T02:27:56.783Z,8.35
2019-02-10T02:28:57.018Z,8.82
2019-02-10T02:31:01.187Z,8.54
2019-02-10T02:32:01.423Z,7.87
2019-02-10T02:34:05.597Z,6.26
2019-02-10T02:35:05.826Z,6.35
2019-02-10T02:37:07.707Z,5.69
2019-02-10T02:37:59.142Z,5.79
2019-02-10T02:40:03.316Z,8.44
2019-02-10T02:41:03.548Z,8.44
2019-02-10T02:43:07.696Z,8.35
2019-02-10T02:44:07.932Z,8.82
2019-02-10T02:46:12.103Z,10.25
2019-02-10T02:47:12.343Z,11.00
2019-02-10T02:49:16.519Z,13.20
2019-02-10T02:50:16.751Z,13.47
2019-02-10T02:52:20.901Z,13.00
2019-02-10T02:53:21.134Z,12.81
2019-02-10T02:55:25.303Z,14.62
2019-02-10T02:56:25.537Z,13.76
2019-02-10T02:58:29.688Z,13.85
2019-02-10T02:59:29.925Z,14.90
2019-02-10T03:01:34.100Z,15.28
2019-02-10T03:02:34.328Z,15.19
2019-02-10T03:04:38.501Z,15.84
2019-02-10T03:05:38.734Z,15.56
2019-02-10T03:07:31.815Z,16.14
2019-02-10T03:08:32.048Z,15.66
2019-02-10T03:10:36.221Z,16.61
2019-02-10T03:11:36.454Z,15.75
2019-02-10T03:13:40.624Z,18.23
2019-02-10T03:14:40.858Z,18.89
2019-02-10T03:16:45.028Z,19.18
2019-02-10T03:17:45.261Z,19.74
2019-02-10T03:19:52.865Z,19.46
2019-02-10T03:20:49.630Z,20.69
2019-02-10T03:22:53.779Z,21.17
2019-02-10T03:23:54.013Z,20.69
2019-02-10T03:25:58.189Z,22.50
2019-02-10T03:26:58.422Z,22.88
2019-02-10T03:29:02.574Z,24.40
2019-02-10T03:30:02.811Z,25.82
2019-02-10T03:32:06.983Z,27.25
2019-02-10T03:33:07.219Z,28.38
2019-02-10T03:35:11.385Z,30.28
2019-02-10T03:36:11.623Z,30.57
2019-02-10T03:38:15.773Z,31.13
2019-02-10T03:39:16.008Z,31.42
2019-02-10T03:41:20.176Z,35.41
2019-02-10T03:42:20.413Z,35.88
2019-02-10T03:44:24.568Z,35.88
2019-02-10T03:45:24.798Z,35.03
2019-02-10T03:47:17.906Z,38.73
2019-02-10T03:48:18.134Z,38.64
2019-02-10T03:50:22.320Z,38.45
2019-02-10T03:51:22.543Z,38.92
2019-02-10T03:53:26.691Z,38.82
2019-02-10T03:54:26.939Z,38.54
2019-02-10T03:56:31.095Z,39.97
2019-02-10T03:57:31.328Z,39.49
2019-02-10T03:59:35.479Z,40.53
2019-02-10T04:00:35.716Z,41.67
2019-02-10T04:02:39.887Z,46.14
2019-02-10T04:03:40.118Z,45.47
2019-02-10T04:05:44.289Z,45.38
2019-02-10T04:06:44.528Z,48.03
2019-02-10T04:08:48.678Z,49.74
2019-02-10T04:09:48.917Z,48.89
2019-02-10T04:11:53.089Z,53.54
2019-02-10T04:12:53.323Z,53.57
2019-02-10T04:14:57.467Z,56.32
2019-02-10T04:15:57.706Z,56.99
2019-02-10T04:18:01.874Z,58.41
2019-02-10T04:19:02.114Z,57.72
2019-02-10T04:21:06.286Z,57.72
2019-02-10T04:22:06.518Z,58.32
2019-02-10T04:24:10.669Z,63.07
2019-02-10T04:25:10.914Z,62.69
2019-02-10T04:27:04.003Z,63.07
2019-02-10T04:28:04.239Z,59.27
2019-02-10T04:30:09.268Z,61.45
2019-02-10T04:31:08.629Z,63.45
2019-02-10T04:33:12.800Z,63.83
2019-02-10T04:34:13.039Z,63.17
2019-02-10T04:36:17.203Z,56.89
2019-02-10T04:37:17.449Z,49.87
2019-02-10T04:39:21.587Z,48.41
2019-02-10T04:40:21.819Z,42.53
2019-02-10T04:42:25.997Z,28.96
2019-02-10T04:43:26.245Z,27.25
2019-02-10T04:45:30.379Z,22.97
2019-02-10T04:46:30.614Z,22.88
2019-02-10T04:48:34.788Z,21.64
2019-02-10T04:49:35.022Z,24.11
2019-02-10T04:51:39.198Z,17.94
2019-02-10T04:52:39.434Z,21.55
2019-02-10T04:54:43.587Z,18.51
2019-02-10T04:55:43.820Z,17.37
2019-02-10T04:57:36.931Z,13.76
2019-02-10T04:58:37.156Z,12.43
2019-02-10T05:00:41.303Z,11.87
2019-02-10T05:01:41.541Z,18.13
2019-02-10T05:03:45.716Z,10.35
2019-02-10T05:04:45.950Z,9.20
2019-02-10T05:06:50.134Z,5.51
2019-02-10T05:07:54.386Z,13.76
2019-02-10T05:09:54.530Z,2.28
2019-02-10T05:10:54.754Z,5.51
2019-02-10T05:12:58.927Z,6.17
2019-02-10T05:13:59.164Z,7.03
2019-02-10T05:16:03.309Z,0.66
2019-02-10T05:17:03.545Z,0.00
2019-02-10T05:19:07.724Z,0.00
2019-02-10T05:20:07.955Z,0.00
2019-02-10T05:22:12.137Z,0.00
2019-02-10T05:23:12.368Z,0.00
2019-02-10T05:25:16.518Z,0.00
2019-02-10T05:26:16.756Z,0.00
2019-02-10T05:28:20.928Z,0.00
2019-02-10T05:29:21.159Z,0.00
2019-02-10T05:31:25.309Z,0.00
2019-02-10T05:32:25.541Z,0.00
2019-02-10T05:34:29.726Z,0.00
2019-02-10T05:35:29.961Z,0.00
2019-02-10T05:37:23.549Z,0.00
2019-02-10T05:38:23.788Z,0.00
2019-02-10T05:40:28.428Z,0.00
2019-02-10T05:41:28.669Z,0.00
2019-02-10T05:43:33.363Z,0.00
2019-02-10T05:44:33.613Z,0.00
2019-02-10T05:46:38.222Z,0.00
2019-02-10T05:47:38.447Z,0.00
2019-02-10T05:49:44.129Z,0.00
2019-02-10T05:50:44.379Z,0.00
2019-02-10T05:52:50.019Z,0.00
2019-02-10T05:53:50.282Z,0.00
2019-02-10T05:55:55.322Z,0.00
2019-02-10T05:56:55.235Z,0.00
2019-02-10T05:59:01.006Z,0.00
2019-02-10T06:00:01.134Z,0.00
2019-02-10T06:02:05.892Z,0.00
2019-02-10T06:03:06.028Z,0.00
2019-02-10T06:05:10.716Z,0.00
2019-02-10T06:06:10.923Z,0.00
2019-02-10T06:08:16.636Z,0.00
2019-02-10T06:09:16.933Z,0.00
2019-02-10T06:11:21.496Z,0.00
2019-02-10T06:12:21.753Z,0.00
2019-02-10T06:14:26.497Z,0.00
2019-02-10T06:15:26.685Z,0.00
2019-02-10T06:17:20.256Z,0.00
2019-02-10T06:18:20.507Z,0.00
2019-02-10T06:20:25.120Z,0.00
2019-02-10T06:21:25.338Z,0.00
2019-02-10T06:23:30.033Z,0.00
2019-02-10T06:24:30.240Z,0.00
2019-02-10T06:26:34.964Z,0.00
2019-02-10T06:27:35.161Z,0.00
2019-02-10T06:29:39.811Z,0.00
2019-02-10T06:30:40.050Z,0.00
2019-02-10T06:32:44.203Z,0.00
2019-02-10T06:33:44.437Z,0.00
2019-02-10T06:35:48.606Z,0.00
2019-02-10T06:36:48.846Z,0.00
2019-02-10T06:38:52.994Z,0.00
2019-02-10T06:39:53.250Z,0.00
2019-02-10T06:41:57.435Z,0.00
2019-02-10T06:42:57.634Z,0.00
2019-02-10T06:45:02.304Z,0.00
2019-02-10T06:46:02.559Z,0.00
2019-02-10T06:48:07.186Z,0.00
2019-02-10T06:49:07.419Z,0.00
2019-02-10T06:51:11.618Z,0.00
2019-02-10T06:52:11.826Z,0.00
2019-02-10T06:54:16.497Z,0.00
2019-02-10T06:55:16.732Z,0.00
2019-02-10T06:57:09.834Z,0.00
2019-02-10T06:58:10.061Z,0.00
2019-02-10T07:00:14.209Z,0.00
2019-02-10T07:01:14.436Z,0.00
2019-02-10T07:03:18.630Z,0.00
2019-02-10T07:04:18.815Z,0.00
2019-02-10T07:06:23.062Z,0.00
2019-02-10T07:07:23.243Z,0.00
2019-02-10T07:09:27.892Z,0.00
2019-02-10T07:10:28.127Z,0.00
2019-02-10T07:12:32.336Z,0.00
2019-02-10T07:13:32.576Z,0.00
2019-02-10T07:15:37.212Z,0.00
2019-02-10T07:16:37.424Z,0.00
2019-02-10T07:18:41.574Z,0.00
2019-02-10T07:19:41.805Z,0.00
2019-02-10T07:21:46.023Z,0.00
2019-02-10T07:22:46.214Z,0.00
2019-02-10T07:24:50.346Z,0.00
2019-02-10T07:25:50.598Z,0.00
2019-02-10T07:27:54.754Z,0.00
2019-02-10T07:28:54.991Z,0.00
2019-02-10T07:30:59.157Z,0.00
2019-02-10T07:31:59.386Z,0.00
2019-02-10T07:34:03.539Z,0.00
2019-02-10T07:35:03.774Z,0.00
2019-02-10T07:36:56.890Z,0.00
2019-02-10T07:37:57.113Z,0.00
2019-02-10T07:40:01.267Z,0.00
2019-02-10T07:41:01.500Z,0.00
2019-02-10T07:43:05.672Z,0.00
2019-02-10T07:44:05.909Z,0.00
2019-02-10T07:46:10.075Z,0.00
2019-02-10T07:47:10.314Z,0.00
2019-02-10T07:49:14.467Z,0.00
2019-02-10T07:50:14.742Z,0.00
2019-02-10T07:52:18.922Z,0.00
2019-02-10T07:53:19.156Z,0.00
2019-02-10T07:55:23.303Z,0.00
2019-02-10T07:56:23.539Z,0.00
2019-02-10T07:58:27.708Z,0.00
2019-02-10T07:59:27.947Z,0.00
2019-02-10T08:01:32.120Z,0.00
2019-02-10T08:02:32.354Z,0.00
2019-02-10T08:04:36.505Z,0.00
2019-02-10T08:05:36.740Z,0.00
2019-02-10T08:07:29.843Z,0.00
2019-02-10T08:08:30.074Z,0.00
2019-02-10T08:10:34.222Z,0.00
2019-02-10T08:11:34.462Z,0.00
2019-02-10T08:13:38.636Z,0.00
2019-02-10T08:14:38.865Z,0.00
2019-02-10T08:16:43.038Z,0.00
2019-02-10T08:17:43.275Z,0.00
2019-02-10T08:19:47.432Z,0.00
2019-02-10T08:20:47.669Z,0.00
2019-02-10T08:22:51.839Z,0.00
2019-02-10T08:23:52.076Z,0.00
2019-02-10T08:25:56.233Z,0.00
2019-02-10T08:26:56.467Z,0.00
2019-02-10T08:29:00.639Z,0.00
2019-02-10T08:30:00.880Z,0.00
2019-02-10T08:32:05.045Z,0.00
2019-02-10T08:33:05.280Z,0.00
2019-02-10T08:35:09.430Z,0.00
2019-02-10T08:36:09.667Z,0.00
2019-02-10T08:38:13.840Z,0.00
2019-02-10T08:39:14.067Z,0.00
2019-02-10T08:41:18.227Z,0.00
2019-02-10T08:42:18.465Z,0.00
2019-02-10T08:44:22.651Z,0.00
2019-02-10T08:45:22.883Z,0.00
2019-02-10T08:47:15.980Z,0.00
2019-02-10T08:48:16.218Z,0.00
2019-02-10T08:50:20.409Z,0.00
2019-02-10T08:51:20.605Z,0.00
2019-02-10T08:53:24.769Z,0.00
2019-02-10T08:54:25.005Z,0.00
2019-02-10T08:56:29.153Z,0.00
2019-02-10T08:57:29.390Z,0.00
2019-02-10T08:59:33.557Z,0.00
2019-02-10T09:00:33.796Z,0.00
2019-02-10T09:02:37.968Z,0.00
2019-02-10T09:03:38.202Z,0.00
2019-02-10T09:05:42.353Z,0.00
2019-02-10T09:06:42.591Z,0.00
2019-02-10T09:08:46.759Z,0.00
2019-02-10T09:09:46.998Z,0.00
2019-02-10T09:11:51.146Z,0.00
2019-02-10T09:12:51.385Z,0.00
2019-02-10T09:14:55.553Z,0.00
2019-02-10T09:15:55.787Z,0.00
2019-02-10T09:17:59.968Z,0.00
2019-02-10T09:19:00.202Z,0.00
2019-02-10T09:21:04.360Z,0.00
2019-02-10T09:22:04.600Z,0.00
2019-02-10T09:24:08.897Z,0.00
2019-02-10T09:25:09.267Z,0.00
2019-02-10T09:27:02.372Z,0.00
2019-02-10T09:28:02.631Z,0.00
2019-02-10T09:30:07.485Z,0.00
2019-02-10T09:31:07.712Z,0.00
2019-02-10T09:33:11.889Z,0.00
2019-02-10T09:34:12.124Z,0.00
2019-02-10T09:36:16.328Z,0.00
2019-02-10T09:37:16.723Z,0.00
2019-02-10T09:39:21.097Z,0.00
2019-02-10T09:40:21.281Z,0.00
2019-02-10T09:42:25.212Z,0.00
2019-02-10T09:43:25.454Z,0.00
2019-02-10T09:45:29.626Z,0.00
2019-02-10T09:46:29.863Z,0.00
2019-02-10T09:48:34.122Z,0.00
2019-02-10T09:49:34.497Z,0.00
2019-02-10T09:51:38.729Z,0.00
2019-02-10T09:52:39.013Z,0.00
2019-02-10T09:54:43.187Z,0.00
2019-02-10T09:55:43.577Z,0.00
2019-02-10T09:57:36.716Z,0.00
2019-02-10T09:58:37.112Z,0.00
2019-02-10T10:00:41.275Z,0.00
2019-02-10T10:01:41.597Z,0.00
2019-02-10T10:03:46.000Z,0.00
2019-02-10T10:04:46.090Z,0.00
2019-02-10T10:06:50.315Z,0.00
2019-02-10T10:07:50.545Z,0.00
2019-02-10T10:09:54.765Z,0.00
2019-02-10T10:10:55.165Z,0.00
2019-02-10T10:13:00.320Z,0.00
2019-02-10T10:14:00.557Z,0.00
2019-02-10T10:16:04.736Z,0.00
2019-02-10T10:17:05.079Z,0.00
2019-02-10T10:19:09.346Z,0.00
2019-02-10T10:20:09.583Z,0.00
2019-02-10T10:22:13.731Z,0.00
2019-02-10T10:23:14.106Z,0.00
2019-02-10T10:25:18.282Z,0.00
2019-02-10T10:26:18.520Z,0.00
2019-02-10T10:28:22.669Z,0.00
2019-02-10T10:29:22.906Z,0.00
2019-02-10T10:31:27.082Z,0.00
2019-02-10T10:32:27.319Z,0.00
2019-02-10T10:34:31.493Z,0.00
2019-02-10T10:35:31.730Z,0.00
2019-02-10T10:37:24.804Z,0.00
2019-02-10T10:38:25.041Z,0.00
2019-02-10T10:40:29.209Z,0.00
2019-02-10T10:41:29.447Z,0.00
2019-02-10T10:43:33.598Z,0.00
2019-02-10T10:44:33.836Z,0.00
2019-02-10T10:46:38.004Z,0.00
2019-02-10T10:47:38.239Z,0.00
2019-02-10T10:49:42.406Z,0.00
2019-02-10T10:50:42.643Z,0.00
2019-02-10T10:52:46.791Z,0.00
2019-02-10T10:53:47.028Z,0.00
2019-02-10T10:55:51.207Z,0.00
2019-02-10T10:56:51.443Z,0.00
2019-02-10T10:58:55.594Z,0.00
2019-02-10T10:59:55.834Z,0.00
2019-02-10T11:02:00.010Z,0.00
2019-02-10T11:03:00.247Z,0.00
2019-02-10T11:05:04.426Z,0.00
2019-02-10T11:06:04.665Z,0.00
2019-02-10T11:08:08.815Z,0.00
2019-02-10T11:09:09.056Z,0.00
2019-02-10T11:11:13.229Z,0.00
2019-02-10T11:12:13.462Z,0.00
2019-02-10T11:14:17.611Z,0.00
2019-02-10T11:15:17.872Z,0.00
2019-02-10T11:17:10.944Z,0.00
2019-02-10T11:18:11.179Z,0.00
2019-02-10T11:20:15.352Z,0.00
2019-02-10T11:21:15.590Z,0.00
2019-02-10T11:23:19.788Z,0.00
2019-02-10T11:24:20.015Z,0.00
2019-02-10T11:26:24.185Z,0.00
2019-02-10T11:27:24.432Z,0.00
2019-02-10T11:29:28.582Z,0.00
2019-02-10T11:30:28.821Z,0.00
2019-02-10T11:32:32.995Z,0.00
2019-02-10T11:33:33.230Z,0.00
2019-02-10T11:35:37.405Z,0.00
2019-02-10T11:36:37.636Z,0.00
2019-02-10T11:38:41.783Z,0.00
2019-02-10T11:39:43.797Z,0.00
2019-02-10T11:41:46.191Z,0.00
2019-02-10T11:42:46.428Z,0.00
2019-02-10T11:44:50.594Z,0.00
2019-02-10T11:45:50.830Z,0.00
2019-02-10T11:47:55.008Z,0.00
2019-02-10T11:48:55.247Z,0.00
2019-02-10T11:51:00.420Z,0.00
2019-02-10T11:51:59.658Z,0.00
2019-02-10T11:54:03.809Z,0.00
2019-02-10T11:55:04.046Z,0.00
2019-02-10T11:56:57.147Z,0.00
2019-02-10T11:57:57.386Z,0.00
2019-02-10T12:00:01.532Z,0.00
2019-02-10T12:01:01.769Z,0.00
2019-02-10T12:03:05.935Z,0.00
2019-02-10T12:04:06.173Z,0.00
2019-02-10T12:06:10.347Z,0.00
2019-02-10T12:07:10.585Z,0.00
2019-02-10T12:09:14.733Z,0.00
2019-02-10T12:10:14.970Z,0.00
2019-02-10T12:12:19.142Z,0.00
2019-02-10T12:13:19.381Z,0.00
2019-02-10T12:15:23.916Z,0.00
2019-02-10T12:16:23.905Z,0.00
2019-02-10T12:18:28.078Z,0.00
2019-02-10T12:19:28.316Z,0.00
2019-02-10T12:21:32.492Z,0.00
2019-02-10T12:22:32.738Z,0.00
2019-02-10T12:24:36.887Z,0.00
2019-02-10T12:25:37.190Z,0.00
2019-02-10T12:27:30.308Z,0.00
2019-02-10T12:28:30.534Z,0.00
2019-02-10T12:30:34.690Z,0.00
2019-02-10T12:31:34.929Z,0.00
2019-02-10T12:33:39.106Z,0.00
2019-02-10T12:34:39.342Z,0.00
2019-02-10T12:36:43.517Z,0.00
2019-02-10T12:37:43.752Z,0.00
2019-02-10T12:39:47.903Z,0.00
2019-02-10T12:40:48.441Z,0.00
2019-02-10T12:42:52.446Z,0.00
2019-02-10T12:43:52.681Z,0.00
2019-02-10T12:45:57.350Z,0.00
2019-02-10T12:46:57.588Z,0.00
2019-02-10T12:49:01.816Z,0.00
2019-02-10T12:50:02.056Z,0.00
2019-02-10T12:52:06.222Z,0.00
2019-02-10T12:53:06.476Z,0.00
2019-02-10T12:55:11.122Z,0.00
2019-02-10T12:56:11.357Z,0.00
2019-02-10T12:58:15.529Z,0.00
2019-02-10T12:59:15.820Z,0.00
2019-02-10T13:01:20.005Z,0.00
2019-02-10T13:02:20.277Z,0.00
2019-02-10T13:04:24.494Z,0.00
2019-02-10T13:05:24.778Z,0.00
2019-02-10T13:07:18.375Z,0.00
2019-02-10T13:08:18.666Z,0.00
2019-02-10T13:10:23.352Z,0.00
2019-02-10T13:11:23.624Z,0.00
2019-02-10T13:13:27.805Z,0.00
2019-02-10T13:14:28.038Z,0.00
2019-02-10T13:16:32.228Z,0.00
2019-02-10T13:17:32.469Z,0.00
2019-02-10T13:19:36.725Z,0.00
2019-02-10T13:20:36.958Z,0.00
2019-02-10T13:22:41.299Z,0.00
2019-02-10T13:23:41.533Z,0.00
2019-02-10T13:25:45.713Z,0.00
2019-02-10T13:26:46.027Z,0.00
2019-02-10T13:28:50.277Z,0.00
2019-02-10T13:29:50.510Z,0.00
2019-02-10T13:31:54.667Z,0.00
2019-02-10T13:32:54.901Z,0.00
2019-02-10T13:34:59.142Z,0.00
2019-02-10T13:35:59.376Z,0.00
2019-02-10T13:38:03.550Z,0.00
2019-02-10T13:39:03.795Z,0.00
2019-02-10T13:41:07.937Z,0.00
2019-02-10T13:42:08.229Z,0.00
2019-02-10T13:44:12.451Z,0.00
2019-02-10T13:45:12.675Z,0.00
2019-02-10T13:47:05.771Z,0.00
2019-02-10T13:48:06.071Z,0.00
2019-02-10T13:50:10.315Z,0.00
2019-02-10T13:51:10.566Z,0.00
2019-02-10T13:53:14.748Z,0.00
2019-02-10T13:54:14.987Z,0.00
2019-02-10T13:56:19.174Z,0.00
2019-02-10T13:57:19.518Z,0.00
2019-02-10T13:59:23.760Z,0.00
2019-02-10T14:00:23.996Z,0.00
2019-02-10T14:02:28.203Z,0.00
2019-02-10T14:03:28.438Z,0.00
2019-02-10T14:05:32.609Z,0.00
2019-02-10T14:06:32.850Z,0.00
2019-02-10T14:08:37.017Z,0.00
2019-02-10T14:09:37.255Z,0.00
2019-02-10T14:11:41.406Z,0.00
2019-02-10T14:12:41.641Z,0.00
2019-02-10T14:14:45.810Z,0.00
2019-02-10T14:15:46.045Z,0.00
2019-02-10T14:17:39.125Z,0.00
2019-02-10T14:18:39.361Z,0.00
2019-02-10T14:20:43.719Z,0.00
2019-02-10T14:21:43.784Z,0.00
2019-02-10T14:23:47.956Z,0.00
2019-02-10T14:24:48.189Z,0.00
2019-02-10T14:26:52.338Z,0.00
2019-02-10T14:27:52.576Z,0.00
2019-02-10T14:29:56.747Z,0.00
2019-02-10T14:30:56.994Z,0.00
2019-02-10T14:33:01.174Z,0.00
2019-02-10T14:34:01.411Z,0.00
2019-02-10T14:36:05.583Z,0.00
2019-02-10T14:37:05.823Z,0.00
2019-02-10T14:39:09.998Z,0.00
2019-02-10T14:40:10.235Z,0.00
2019-02-10T14:42:14.389Z,0.00
2019-02-10T14:43:14.628Z,0.00
2019-02-10T14:45:18.803Z,0.00
2019-02-10T14:46:19.039Z,0.00
2019-02-10T14:48:23.193Z,0.00
2019-02-10T14:49:23.431Z,0.00
2019-02-10T14:51:27.603Z,0.00
2019-02-10T14:52:27.843Z,0.00
2019-02-10T14:54:32.017Z,1.14
2019-02-10T14:55:32.258Z,6.56
2019-02-10T14:57:25.335Z,1.81
2019-02-10T14:58:25.575Z,3.23
2019-02-10T15:00:29.749Z,8.47
2019-02-10T15:01:29.987Z,3.80
2019-02-10T15:03:34.218Z,7.80
2019-02-10T15:04:34.376Z,3.33
2019-02-10T15:06:38.558Z,7.89
2019-02-10T15:07:38.794Z,7.89
2019-02-10T15:09:42.968Z,6.37
2019-02-10T15:10:43.207Z,9.32
2019-02-10T15:12:47.356Z,12.55
2019-02-10T15:13:47.594Z,13.51
2019-02-10T15:15:51.766Z,7.70
2019-02-10T15:16:52.006Z,9.61
2019-02-10T15:18:56.642Z,4.85
2019-02-10T15:19:56.885Z,7.13
2019-02-10T15:22:01.551Z,9.51
2019-02-10T15:23:01.790Z,5.51
2019-02-10T15:25:06.458Z,1.90
2019-02-10T15:26:06.696Z,7.51
2019-02-10T15:28:11.342Z,6.46
2019-02-10T15:29:11.598Z,14.55
2019-02-10T15:31:16.270Z,15.88
2019-02-10T15:32:16.923Z,8.47
2019-02-10T15:34:21.215Z,10.65
2019-02-10T15:35:21.453Z,13.98
2019-02-10T15:37:15.032Z,20.54
2019-02-10T15:38:15.268Z,14.36
2019-02-10T15:40:19.441Z,17.02
2019-02-10T15:41:19.681Z,19.69
2019-02-10T15:43:23.835Z,17.31
2019-02-10T15:44:24.074Z,23.59
2019-02-10T15:46:28.247Z,20.92
2019-02-10T15:47:28.487Z,25.49
2019-02-10T15:49:33.194Z,24.26
2019-02-10T15:50:33.433Z,28.34
2019-02-10T15:52:39.145Z,21.31
2019-02-10T15:53:39.304Z,20.54
2019-02-10T15:55:43.981Z,27.00
2019-02-10T15:56:44.251Z,26.92
2019-02-10T15:58:49.876Z,20.64
2019-02-10T15:59:50.112Z,23.59
2019-02-10T16:01:55.806Z,19.30
2019-02-10T16:02:56.007Z,33.01
2019-02-10T16:05:00.687Z,27.28
2019-02-10T16:06:00.928Z,32.70
2019-02-10T16:08:05.589Z,34.03
2019-02-10T16:09:05.814Z,37.65
2019-02-10T16:11:11.489Z,31.47
2019-02-10T16:12:11.724Z,32.61
2019-02-10T16:14:16.386Z,32.32
2019-02-10T16:15:16.645Z,40.03
2019-02-10T16:17:11.216Z,36.60
2019-02-10T16:18:11.464Z,33.37
2019-02-10T16:20:16.129Z,35.17
2019-02-10T16:21:16.365Z,32.14
2019-02-10T16:23:21.015Z,36.32
2019-02-10T16:24:21.252Z,39.36
2019-02-10T16:26:25.939Z,38.98
2019-02-10T16:27:26.167Z,37.93
2019-02-10T16:29:30.318Z,40.12
2019-02-10T16:30:30.557Z,39.07
2019-02-10T16:32:34.756Z,34.32
2019-02-10T16:33:34.992Z,36.32
2019-02-10T16:35:40.671Z,34.99
2019-02-10T16:36:40.897Z,40.79
2019-02-10T16:38:46.547Z,43.07
2019-02-10T16:39:46.774Z,45.07
2019-02-10T16:41:51.463Z,44.78
2019-02-10T16:42:51.716Z,41.93
2019-02-10T16:44:57.350Z,44.12
2019-02-10T16:45:57.586Z,49.73
2019-02-10T16:48:01.778Z,51.62
2019-02-10T16:49:01.998Z,52.58
2019-02-10T16:51:07.699Z,53.81
2019-02-10T16:52:07.916Z,50.01
2019-02-10T16:54:12.615Z,49.35
2019-02-10T16:55:12.857Z,48.39
2019-02-10T16:57:07.392Z,43.93
2019-02-10T16:58:07.645Z,44.40
2019-02-10T17:00:13.467Z,44.21
2019-02-10T17:01:13.539Z,41.26
2019-02-10T17:03:19.188Z,36.51
2019-02-10T17:04:19.420Z,33.94
2019-02-10T17:06:25.122Z,31.74
2019-02-10T17:07:25.319Z,28.13
2019-02-10T17:09:30.987Z,18.34
2019-02-10T17:10:31.225Z,12.63
2019-02-10T17:12:36.888Z,5.41
2019-02-10T17:13:37.120Z,1.14
2019-02-10T17:15:41.775Z,0.00
2019-02-10T17:16:42.010Z,0.00
2019-02-10T17:18:46.691Z,0.00
2019-02-10T17:19:46.926Z,0.00
2019-02-10T17:21:51.597Z,0.00
2019-02-10T17:22:51.830Z,0.00
2019-02-10T17:24:55.983Z,0.00
2019-02-10T17:25:56.213Z,0.00
2019-02-10T17:28:00.384Z,0.00
2019-02-10T17:29:00.624Z,0.00
2019-02-10T17:31:05.284Z,0.00
2019-02-10T17:32:05.520Z,0.00
2019-02-10T17:34:10.163Z,0.00
2019-02-10T17:35:10.397Z,0.00
2019-02-10T17:37:03.499Z,0.66
2019-02-10T17:38:03.737Z,0.00
2019-02-10T17:40:07.896Z,2.94
2019-02-10T17:41:08.123Z,1.99
2019-02-10T17:43:12.783Z,0.00
2019-02-10T17:44:13.033Z,0.00
2019-02-10T17:46:17.711Z,0.00
2019-02-10T17:47:17.943Z,0.00
2019-02-10T17:49:22.585Z,0.00
2019-02-10T17:50:22.824Z,0.00
2019-02-10T17:52:32.008Z,0.00
2019-02-10T17:53:27.729Z,0.00
2019-02-10T17:55:33.373Z,0.00
2019-02-10T17:56:33.610Z,0.00
2019-02-10T17:58:38.277Z,0.00
2019-02-10T17:59:38.557Z,0.76
2019-02-10T18:01:43.240Z,1.71
2019-02-10T18:02:43.581Z,1.04
2019-02-10T18:04:48.173Z,3.80
2019-02-10T18:05:48.431Z,5.79
2019-02-10T18:07:53.255Z,2.18
2019-02-10T18:08:53.483Z,8.45
2019-02-10T18:10:59.131Z,16.72
2019-02-10T18:11:59.363Z,17.38
2019-02-10T18:14:04.028Z,10.83
2019-02-10T18:15:04.260Z,10.64
2019-02-10T18:16:57.887Z,10.25
2019-02-10T18:17:58.171Z,11.58
2019-02-10T18:20:02.821Z,9.78
2019-02-10T18:21:03.062Z,8.45
2019-02-10T18:23:08.741Z,12.06
2019-02-10T18:24:08.980Z,9.97
2019-02-10T18:26:13.619Z,11.49
2019-02-10T18:27:13.855Z,10.16
2019-02-10T18:29:18.585Z,16.43
2019-02-10T18:30:19.146Z,16.71
2019-02-10T18:32:25.598Z,14.43
2019-02-10T18:33:25.882Z,14.71
2019-02-10T18:35:30.564Z,14.43
2019-02-10T18:36:30.811Z,13.95
2019-02-10T18:38:35.463Z,15.09
2019-02-10T18:39:35.749Z,11.10
2019-02-10T18:41:42.423Z,4.84
2019-02-10T18:42:42.862Z,4.74
2019-02-10T18:44:48.472Z,0.00
2019-02-10T18:45:48.697Z,0.00
2019-02-10T18:47:53.367Z,0.00
2019-02-10T18:48:53.635Z,0.00
2019-02-10T18:50:46.963Z,0.00
2019-02-10T18:51:47.147Z,0.00
2019-02-10T18:53:51.323Z,0.00
2019-02-10T18:54:52.430Z,0.00
2019-02-10T18:56:56.242Z,0.00
2019-02-10T18:57:56.484Z,0.00
2019-02-10T19:00:02.255Z,0.00
2019-02-10T19:01:02.531Z,0.00
2019-02-10T19:03:08.198Z,0.00
2019-02-10T19:04:08.433Z,0.00
2019-02-10T19:06:13.084Z,0.00
2019-02-10T19:07:13.317Z,0.00
2019-02-10T19:09:18.992Z,0.00
2019-02-10T19:10:19.231Z,0.00
2019-02-10T19:12:23.890Z,0.00
2019-02-10T19:13:24.117Z,0.00
2019-02-10T19:15:28.775Z,0.00
2019-02-10T19:16:29.011Z,0.00
2019-02-10T19:18:33.193Z,0.00
2019-02-10T19:19:33.427Z,0.00
2019-02-10T19:21:37.574Z,0.00
2019-02-10T19:22:37.816Z,0.00
2019-02-10T19:24:41.983Z,0.00
2019-02-10T19:25:42.220Z,0.00
2019-02-10T19:27:35.298Z,0.00
2019-02-10T19:28:35.534Z,0.00
2019-02-10T19:30:39.708Z,0.00
2019-02-10T19:31:39.944Z,0.00
2019-02-10T19:33:44.162Z,0.00
2019-02-10T19:34:44.389Z,0.00
2019-02-10T19:36:48.540Z,0.00
2019-02-10T19:37:48.778Z,0.00
2019-02-10T19:39:52.949Z,0.00
2019-02-10T19:40:53.185Z,0.00
2019-02-10T19:42:57.332Z,0.00
2019-02-10T19:43:57.570Z,0.00
2019-02-10T19:46:01.744Z,0.00
2019-02-10T19:47:01.979Z,0.00
2019-02-10T19:49:06.156Z,0.00
2019-02-10T19:50:06.452Z,0.00
2019-02-10T19:52:10.535Z,0.00
2019-02-10T19:53:10.773Z,0.00
2019-02-10T19:55:14.953Z,0.00
2019-02-10T19:56:15.188Z,0.00
2019-02-10T19:58:19.341Z,1.23
2019-02-10T19:59:19.585Z,0.76
2019-02-10T20:01:23.761Z,0.00
2019-02-10T20:02:23.988Z,5.41
2019-02-10T20:04:28.181Z,1.89
2019-02-10T20:05:28.410Z,0.00
2019-02-10T20:07:21.487Z,6.26
2019-02-10T20:08:21.734Z,8.35
2019-02-10T20:10:25.893Z,2.47
2019-02-10T20:11:26.132Z,7.59
2019-02-10T20:13:30.277Z,7.12